Time;durP1;ratioP1;P1;durP2;ratioP2;P2;SDS_P1;SDS_P2;PMS_P1;PMS_P2;Temp;Humidity;BMP_temperature;BMP_pressure;BME280_temperature;BME280_humidity;BME280_pressure;Samples;Min_cycle;Max_cycle;Signal;HPM_P1;HPM_P2
2021/06/25 00:01:41;;;;;;;3.30;3.20;;;16.10;99.90;;;;;;5034088;28;20045;-66
2021/06/25 00:04:09;;;;;;;3.53;3.28;;;16.10;99.90;;;;;;5034001;28;20025;-65
2021/06/25 00:06:36;;;;;;;2.90;2.80;;;16.20;99.90;;;;;;5033844;28;20022;-64
2021/06/25 00:09:04;;;;;;;3.25;3.05;;;16.20;99.90;;;;;;5032487;28;20036;-62
2021/06/25 00:11:31;;;;;;;3.30;3.10;;;16.40;99.90;;;;;;5033857;28;20025;-66
2021/06/25 00:13:59;;;;;;;3.47;3.28;;;16.50;99.90;;;;;;5033645;28;20025;-67
2021/06/25 00:16:26;;;;;;;3.83;3.53;;;16.50;99.90;;;;;;5032408;28;20033;-65
2021/06/25 00:18:53;;;;;;;4.22;4.00;;;16.70;99.90;;;;;;5033608;28;20026;-66
2021/06/25 00:21:20;;;;;;;3.35;3.25;;;16.80;99.90;;;;;;5033737;28;20386;-66
2021/06/25 00:23:48;;;;;;;3.30;3.20;;;16.70;99.90;;;;;;5033668;28;20025;-65
2021/06/25 00:26:15;;;;;;;3.78;3.33;;;16.70;99.90;;;;;;5033513;28;20477;-65
2021/06/25 00:28:43;;;;;;;3.60;3.40;;;16.70;99.90;;;;;;5033864;28;20071;-70
2021/06/25 00:31:11;;;;;;;3.20;3.00;;;16.70;99.90;;;;;;5033528;28;20501;-66
2021/06/25 00:33:38;;;;;;;5.15;3.20;;;16.80;99.90;;;;;;5033215;28;20056;-67
2021/06/25 00:36:06;;;;;;;2.55;2.45;;;16.80;99.90;;;;;;5033315;28;20022;-65
2021/06/25 00:38:33;;;;;;;2.30;2.20;;;16.80;99.90;;;;;;5033174;28;20029;-65
2021/06/25 00:41:01;;;;;;;2.60;2.50;;;16.80;99.90;;;;;;5033339;28;20031;-68
2021/06/25 00:43:28;;;;;;;2.80;2.60;;;16.80;99.90;;;;;;5033382;28;20022;-67
2021/06/25 00:45:55;;;;;;;3.00;2.90;;;16.80;99.90;;;;;;5033192;28;20021;-67
2021/06/25 00:48:23;;;;;;;3.10;2.90;;;16.80;99.10;;;;;;5033174;28;20164;-68
2021/06/25 00:50:50;;;;;;;2.90;2.70;;;17.00;98.70;;;;;;5033111;28;20028;-65
2021/06/25 00:53:18;;;;;;;2.60;2.50;;;17.10;98.60;;;;;;5033071;28;20021;-68
2021/06/25 00:55:46;;;;;;;3.08;2.90;;;17.10;97.60;;;;;;5032704;28;20049;-65
2021/06/25 00:58:16;;;;;;;3.33;3.17;;;17.20;99.30;;;;;;5032833;28;20030;-65
2021/06/25 01:00:44;;;;;;;2.70;2.60;;;17.00;98.50;;;;;;5031303;28;20026;-64
2021/06/25 01:03:14;;;;;;;3.20;3.10;;;16.90;99.60;;;;;;5032860;28;20026;-66
2021/06/25 01:05:43;;;;;;;3.08;2.88;;;17.00;99.50;;;;;;5032737;28;20025;-65
2021/06/25 01:08:11;;;;;;;3.03;2.83;;;16.90;99.00;;;;;;5032833;28;20082;-65
2021/06/25 01:10:40;;;;;;;3.00;2.80;;;16.80;98.20;;;;;;5032791;28;20499;-69
2021/06/25 01:13:09;;;;;;;3.45;3.30;;;17.00;98.30;;;;;;5032789;28;20398;-66
2021/06/25 01:15:37;;;;;;;4.18;3.80;;;17.10;98.90;;;;;;5032720;28;20025;-62
2021/06/25 01:18:04;;;;;;;3.60;3.40;;;17.10;98.00;;;;;;5032760;28;20043;-63
2021/06/25 01:20:34;;;;;;;3.72;3.53;;;17.20;98.30;;;;;;5032872;28;20459;-64
2021/06/25 01:23:01;;;;;;;3.80;3.58;;;17.20;99.80;;;;;;5032880;28;20041;-67
2021/06/25 01:25:32;;;;;;;3.50;3.40;;;17.30;99.50;;;;;;5032772;28;20056;-68
2021/06/25 01:28:08;;;;;;;3.42;3.30;;;17.20;99.70;;;;;;5033064;28;20018;-68
2021/06/25 01:30:46;;;;;;;3.67;3.40;;;17.20;99.90;;;;;;5032769;28;20025;-69
2021/06/25 01:33:19;;;;;;;3.25;3.15;;;17.30;99.90;;;;;;5032764;28;20022;-66
2021/06/25 01:35:47;;;;;;;3.28;3.15;;;17.50;99.70;;;;;;5032640;28;20064;-66
2021/06/25 01:38:15;;;;;;;4.20;3.90;;;17.50;99.90;;;;;;5032666;28;20017;-68
2021/06/25 01:40:44;;;;;;;3.25;3.08;;;17.50;98.90;;;;;;5032591;28;20386;-68
2021/06/25 01:43:12;;;;;;;3.38;3.13;;;17.50;99.10;;;;;;5032622;28;20013;-68
2021/06/25 01:45:42;;;;;;;3.03;2.92;;;17.50;98.50;;;;;;5032619;28;20049;-66
2021/06/25 01:48:11;;;;;;;3.25;2.95;;;17.40;97.80;;;;;;5032868;28;20067;-68
2021/06/25 01:50:41;;;;;;;3.53;3.20;;;17.40;98.90;;;;;;5032559;28;20379;-70
2021/06/25 01:53:17;;;;;;;3.70;2.83;;;17.50;98.40;;;;;;5032612;28;20026;-69
2021/06/25 01:55:45;;;;;;;3.20;3.00;;;17.50;98.00;;;;;;5032295;28;20574;-68
2021/06/25 01:58:19;;;;;;;3.20;3.10;;;17.60;97.60;;;;;;5032385;28;20060;-68
2021/06/25 02:01:10;;;;;;;3.03;2.92;;;17.70;98.10;;;;;;5032386;28;20483;-66
2021/06/25 02:03:38;;;;;;;;;;;17.90;98.20;;;;;;5032908;28;20040;-68
2021/06/25 02:06:07;;;;;;;3.25;3.05;;;17.80;97.60;;;;;;5032301;28;19912;-66
2021/06/25 02:08:34;;;;;;;3.30;3.10;;;;;;;;;;5032273;28;20449;-65
2021/06/25 02:11:02;;;;;;;3.10;2.90;;;;;;;;;;5032340;28;20390;-67
2021/06/25 02:13:29;;;;;;;3.35;3.20;;;;;;;;;;5034974;28;20025;-66
2021/06/25 02:15:57;;;;;;;2.90;2.80;;;;;;;;;;5035886;28;20029;-66
2021/06/25 02:18:24;;;;;;;3.05;2.95;;;;;;;;;;5035895;28;20049;-67
2021/06/25 02:20:51;;;;;;;3.58;3.38;;;;;;;;;;5035814;28;20021;-68
2021/06/25 02:23:18;;;;;;;3.22;3.13;;;;;;;;;;5035913;28;20021;-65
2021/06/25 02:25:46;;;;;;;3.10;3.00;;;;;;;;;;5034307;28;20047;-67
2021/06/25 02:28:13;;;;;;;4.30;3.20;;;;;;;;;;5035653;28;20064;-67
2021/06/25 02:30:40;;;;;;;3.17;3.08;;;;;;;;;;5035680;28;20057;-64
2021/06/25 02:33:07;;;;;;;3.40;3.10;;;;;;;;;;5035462;28;20108;-64
2021/06/25 02:35:34;;;;;;;3.53;3.33;;;;;;;;;;5035557;28;20081;-63
2021/06/25 02:38:02;;;;;;;3.70;3.50;;;;;;;;;;5035520;28;20402;-64
2021/06/25 02:40:29;;;;;;;3.70;3.50;;;;;;;;;;5035504;28;20033;-63
2021/06/25 02:42:56;;;;;;;3.50;3.40;;;;;;;;;;5035472;28;20067;-66
2021/06/25 02:45:23;;;;;;;3.35;3.17;;;;;;;;;;5035489;28;20017;-63
2021/06/25 02:47:50;;;;;;;3.42;3.28;;;;;;;;;;5035286;28;20018;-62
2021/06/25 02:50:17;;;;;;;3.70;3.50;;;;;;;;;;5035001;28;20025;-62
2021/06/25 02:52:45;;;;;;;3.55;3.35;;;;;;;;;;5035193;28;20024;-62
2021/06/25 02:55:12;;;;;;;3.40;3.20;;;;;;;;;;5034969;28;20116;-62
2021/06/25 02:57:40;;;;;;;3.22;3.13;;;;;;;;;;5034941;28;20096;-62
2021/06/25 03:00:08;;;;;;;3.40;3.20;;;;;;;;;;5034966;28;20029;-62
2021/06/25 03:02:35;;;;;;;4.07;3.78;;;;;;;;;;5034970;28;20022;-62
2021/06/25 03:05:03;;;;;;;3.47;3.38;;;;;;;;;;5035026;28;20053;-61
2021/06/25 03:07:30;;;;;;;3.30;3.17;;;;;;;;;;5033606;28;20025;-67
2021/06/25 03:09:57;;;;;;;3.38;3.20;;;;;;;;;;5034987;28;20482;-64
2021/06/25 03:12:25;;;;;;;3.40;3.10;;;;;;;;;;5034860;28;20093;-64
2021/06/25 03:14:52;;;;;;;3.17;2.97;;;;;;;;;;5034667;28;20025;-64
2021/06/25 03:17:19;;;;;;;3.40;3.28;;;;;;;;;;5034805;28;20029;-64
2021/06/25 03:19:46;;;;;;;3.00;2.90;;;18.90;98.00;;;;;;5033388;28;20117;-64
2021/06/25 03:22:14;;;;;;;3.05;2.95;;;18.80;97.70;;;;;;5034781;28;20104;-64
2021/06/25 03:24:41;;;;;;;3.35;3.20;;;18.70;98.00;;;;;;5033423;28;20087;-64
2021/06/25 03:27:08;;;;;;;3.28;3.10;;;18.70;98.50;;;;;;5034707;28;20025;-63
2021/06/25 03:29:36;;;;;;;3.08;2.97;;;18.70;97.30;;;;;;5034505;28;20474;-63
2021/06/25 03:32:04;;;;;;;3.03;2.90;;;18.70;97.40;;;;;;5034494;28;20047;-63
2021/06/25 03:34:31;;;;;;;3.40;3.20;;;18.70;96.10;;;;;;5034252;28;20065;-64
2021/06/25 03:36:59;;;;;;;3.30;3.10;;;18.80;95.80;;;;;;5034351;28;20079;-65
2021/06/25 03:39:27;;;;;;;3.90;3.60;;;18.80;95.80;;;;;;5034174;28;20109;-62
2021/06/25 03:41:54;;;;;;;3.20;3.10;;;19.00;95.90;;;;;;5034417;28;20022;-61
2021/06/25 03:44:21;;;;;;;3.40;3.20;;;18.90;95.80;;;;;;5034119;28;20018;-61
2021/06/25 03:46:49;;;;;;;3.80;3.60;;;18.60;97.40;;;;;;5034069;28;20028;-61
2021/06/25 03:49:16;;;;;;;3.72;3.53;;;18.70;96.40;;;;;;5034053;28;20549;-66
2021/06/25 03:51:44;;;;;;;3.50;3.40;;;18.80;95.90;;;;;;5034106;28;20039;-69
2021/06/25 03:54:11;;;;;;;3.17;2.97;;;18.90;96.60;;;;;;5033571;28;20477;-67
2021/06/25 03:56:38;;;;;;;3.25;3.10;;;18.70;95.80;;;;;;5034040;28;20083;-68
2021/06/25 03:59:05;;;;;;;3.13;2.97;;;18.70;95.60;;;;;;5034028;28;20095;-68
2021/06/25 04:01:33;;;;;;;2.75;2.60;;;18.70;95.50;;;;;;5034222;28;20156;-68
2021/06/25 04:04:00;;;;;;;3.22;3.13;;;18.80;95.60;;;;;;5033831;28;20041;-68
2021/06/25 04:06:27;;;;;;;2.75;2.65;;;18.70;94.60;;;;;;5033743;28;20021;-68
2021/06/25 04:08:55;;;;;;;4.30;3.30;;;18.80;94.10;;;;;;5033490;28;20025;-70
2021/06/25 04:11:22;;;;;;;3.67;3.20;;;18.80;94.90;;;;;;5033471;28;20021;-69
2021/06/25 04:13:49;;;;;;;3.20;3.10;;;18.80;95.00;;;;;;5033566;28;20022;-69
2021/06/25 04:16:17;;;;;;;2.60;2.50;;;18.90;94.70;;;;;;5033650;28;20116;-69
2021/06/25 04:18:44;;;;;;;3.25;2.70;;;18.80;95.00;;;;;;5033515;28;20109;-67
2021/06/25 04:21:12;;;;;;;2.67;2.55;;;18.80;95.10;;;;;;5033571;28;20018;-64
2021/06/25 04:23:39;;;;;;;2.72;2.40;;;18.70;95.90;;;;;;5033307;28;20018;-64
2021/06/25 04:26:06;;;;;;;3.03;2.80;;;18.70;96.20;;;;;;5033405;28;20140;-64
2021/06/25 04:28:35;;;;;;;2.83;2.72;;;18.70;95.40;;;;;;5033433;28;20523;-64
2021/06/25 04:31:03;;;;;;;3.00;2.80;;;18.70;94.80;;;;;;5033396;28;20386;-64
2021/06/25 04:33:31;;;;;;;3.20;3.00;;;18.70;95.00;;;;;;5033547;28;20025;-64
2021/06/25 04:35:58;;;;;;;2.80;2.60;;;18.70;95.20;;;;;;5032922;28;20152;-64
2021/06/25 04:38:25;;;;;;;3.13;2.90;;;18.70;95.30;;;;;;5033220;28;20025;-64
2021/06/25 04:40:53;;;;;;;3.30;3.10;;;18.60;95.00;;;;;;5033312;28;20108;-64
2021/06/25 04:43:20;;;;;;;3.00;2.80;;;18.50;95.20;;;;;;5033255;28;20021;-63
2021/06/25 04:45:48;;;;;;;3.40;3.20;;;18.50;95.20;;;;;;5033141;28;20014;-63
2021/06/25 04:48:16;;;;;;;2.80;2.70;;;18.50;95.50;;;;;;5033100;28;20470;-63
2021/06/25 04:50:45;;;;;;;3.35;3.25;;;18.40;94.50;;;;;;5033062;28;20393;-66
2021/06/25 04:53:13;;;;;;;3.22;3.00;;;18.50;95.00;;;;;;5032960;28;20389;-66
2021/06/25 04:55:45;;;;;;;3.28;3.08;;;18.40;94.00;;;;;;5032846;28;20053;-65
2021/06/25 04:58:16;;;;;;;2.90;2.80;;;18.30;94.40;;;;;;5032972;28;20339;-64
2021/06/25 05:00:44;;;;;;;4.50;4.15;;;18.30;94.40;;;;;;5032826;28;20056;-66
2021/06/25 05:03:11;;;;;;;3.10;3.00;;;18.30;94.50;;;;;;5033190;28;20026;-66
2021/06/25 05:05:42;;;;;;;3.40;3.20;;;18.30;94.50;;;;;;5033115;28;20018;-66
2021/06/25 05:08:10;;;;;;;3.40;3.30;;;18.30;95.60;;;;;;5031670;28;20017;-66
2021/06/25 05:10:38;;;;;;;3.40;3.20;;;18.20;95.10;;;;;;5032886;28;20101;-66
2021/06/25 05:13:07;;;;;;;3.45;3.20;;;18.20;94.80;;;;;;5032930;28;20077;-66
2021/06/25 05:15:34;;;;;;;3.55;3.25;;;18.30;94.40;;;;;;5032935;28;20018;-66
2021/06/25 05:18:21;;;;;;;2.85;2.75;;;18.30;94.80;;;;;;5032792;28;20029;-66
2021/06/25 05:20:50;;;;;;;2.80;2.70;;;18.20;94.10;;;;;;5031530;28;20026;-66
2021/06/25 05:23:19;;;;;;;2.40;2.30;;;18.20;95.60;;;;;;5032799;28;20049;-66
2021/06/25 05:25:47;;;;;;;2.50;2.40;;;18.20;94.80;;;;;;5033169;28;20052;-66
2021/06/25 05:28:15;;;;;;;3.50;2.60;;;18.10;94.60;;;;;;5032800;28;20029;-66
2021/06/25 05:30:42;;;;;;;2.90;2.70;;;18.10;95.50;;;;;;5032769;28;20032;-66
2021/06/25 05:33:10;;;;;;;2.67;2.58;;;18.00;94.40;;;;;;5032805;28;20075;-67
2021/06/25 05:35:38;;;;;;;3.58;2.70;;;18.00;95.00;;;;;;5032505;28;20316;-66
2021/06/25 05:38:09;;;;;;;2.80;2.60;;;18.00;94.90;;;;;;5032554;28;20029;-66
2021/06/25 05:40:37;;;;;;;2.72;2.60;;;18.00;95.10;;;;;;5032496;28;20025;-66
2021/06/25 05:43:05;;;;;;;2.92;2.83;;;17.90;95.10;;;;;;5032767;28;20481;-66
2021/06/25 05:45:33;;;;;;;2.70;2.60;;;17.90;95.70;;;;;;5032637;28;20101;-66
2021/06/25 05:48:01;;;;;;;2.70;2.60;;;17.80;94.90;;;;;;5034611;28;20383;-67
2021/06/25 05:50:28;;;;;;;3.00;2.90;;;17.90;94.10;;;;;;5036578;28;20044;-66
2021/06/25 05:52:56;;;;;;;3.20;3.00;;;17.80;94.50;;;;;;5036344;28;20022;-66
2021/06/25 05:55:23;;;;;;;3.80;3.28;;;17.80;94.70;;;;;;5036152;28;20049;-66
2021/06/25 05:57:51;;;;;;;3.45;3.15;;;17.90;94.80;;;;;;5036249;28;20026;-66
2021/06/25 06:00:19;;;;;;;2.67;2.58;;;17.80;93.80;;;;;;5036428;28;20483;-66
2021/06/25 06:02:46;;;;;;;2.97;2.88;;;17.80;93.70;;;;;;5036210;28;20013;-66
2021/06/25 06:05:14;;;;;;;3.30;3.10;;;17.70;93.60;;;;;;5036253;28;20037;-66
2021/06/25 06:07:41;;;;;;;3.50;3.40;;;17.60;93.20;;;;;;5036105;28;20028;-66
2021/06/25 06:10:09;;;;;;;3.03;2.92;;;17.70;93.80;;;;;;5036115;28;20018;-66
2021/06/25 06:12:37;;;;;;;3.00;2.90;;;17.50;93.50;;;;;;5036128;28;20028;-66
2021/06/25 06:15:05;;;;;;;3.03;2.83;;;17.30;93.80;;;;;;5035949;28;20033;-66
2021/06/25 06:17:36;;;;;;;3.30;3.13;;;17.20;94.40;;;;;;5036039;28;20017;-66
2021/06/25 06:20:04;;;;;;;2.80;2.70;;;17.10;94.20;;;;;;5036072;28;20045;-66
2021/06/25 06:33:42;;;;;;;3.50;3.20;;;16.60;95.30;;;;;;5035780;28;20029;-65
2021/06/25 06:36:26;;;;;;;3.50;3.22;;;16.70;96.20;;;;;;5035781;28;20018;-64
2021/06/25 06:38:54;;;;;;;3.20;3.08;;;16.70;95.00;;;;;;5035570;28;20033;-64
2021/06/25 06:41:21;;;;;;;3.92;3.72;;;16.60;94.90;;;;;;5035596;28;20025;-64
2021/06/25 06:43:49;;;;;;;3.55;3.13;;;16.60;95.10;;;;;;5035485;28;20021;-64
2021/06/25 06:46:17;;;;;;;3.22;3.10;;;16.70;94.30;;;;;;5035585;28;20505;-64
2021/06/25 06:48:46;;;;;;;3.15;3.05;;;16.70;93.90;;;;;;5035313;28;20021;-62
2021/06/25 06:51:15;;;;;;;3.27;3.00;;;16.60;94.00;;;;;;5035342;28;20026;-62
2021/06/25 06:53:44;;;;;;;2.90;2.80;;;16.50;94.40;;;;;;5035224;28;20053;-62
2021/06/25 06:56:12;;;;;;;3.30;3.10;;;16.30;94.30;;;;;;5034957;28;20053;-63
2021/06/25 06:58:40;;;;;;;3.50;3.30;;;16.20;94.80;;;;;;5034862;28;20079;-64
2021/06/25 07:01:09;;;;;;;3.10;3.00;;;16.10;94.80;;;;;;5035192;28;20036;-64
2021/06/25 07:03:36;;;;;;;3.35;3.10;;;16.10;94.60;;;;;;5035005;28;20050;-64
2021/06/25 07:06:04;;;;;;;3.28;3.08;;;16.10;94.80;;;;;;5035260;28;20080;-64
2021/06/25 07:08:32;;;;;;;3.45;3.25;;;16.10;95.20;;;;;;5035014;28;20105;-64
2021/06/25 07:10:59;;;;;;;3.33;3.00;;;16.00;95.40;;;;;;5035052;28;20029;-64
2021/06/25 07:13:27;;;;;;;3.85;3.65;;;15.90;95.50;;;;;;5035051;28;20072;-64
2021/06/25 07:15:58;;;;;;;3.30;3.20;;;15.80;96.70;;;;;;5034862;28;20026;-64
2021/06/25 07:18:26;;;;;;;3.05;2.95;;;15.80;95.30;;;;;;5034781;28;20022;-64
2021/06/25 07:20:53;;;;;;;3.33;3.13;;;15.90;95.60;;;;;;5034460;28;20037;-64
2021/06/25 07:23:22;;;;;;;3.30;3.10;;;15.70;96.00;;;;;;5034498;28;20018;-64
2021/06/25 07:25:49;;;;;;;3.40;3.20;;;15.70;97.00;;;;;;5034390;28;20029;-64
2021/06/25 07:28:17;;;;;;;3.10;3.00;;;15.70;97.30;;;;;;5034362;28;20497;-67
2021/06/25 07:30:44;;;;;;;3.28;3.10;;;15.50;97.80;;;;;;5034418;28;20542;-64
2021/06/25 07:33:11;;;;;;;3.40;3.20;;;15.60;97.40;;;;;;5034214;28;20032;-64
2021/06/25 07:35:39;;;;;;;3.00;2.90;;;15.50;97.70;;;;;;5034310;28;20022;-62
2021/06/25 07:38:06;;;;;;;3.10;3.00;;;15.40;98.20;;;;;;5034013;28;20582;-65
2021/06/25 07:40:33;;;;;;;3.10;3.00;;;15.20;98.50;;;;;;5034144;28;20104;-64
2021/06/25 07:43:01;;;;;;;3.10;2.90;;;15.10;97.40;;;;;;5034278;28;20478;-64
2021/06/25 07:45:28;;;;;;;3.10;2.90;;;14.90;98.20;;;;;;5034266;28;20024;-64
2021/06/25 07:47:55;;;;;;;3.33;3.13;;;14.80;98.30;;;;;;5034114;28;20029;-64
2021/06/25 07:50:24;;;;;;;7.22;5.95;;;14.60;98.80;;;;;;5034092;28;20104;-64
2021/06/25 07:52:51;;;;;;;26.75;20.85;;;14.50;98.70;;;;;;5033913;28;20045;-66
2021/06/25 07:55:19;;;;;;;10.30;9.30;;;14.40;99.20;;;;;;5033970;28;20041;-64
2021/06/25 07:57:46;;;;;;;16.67;13.60;;;14.40;99.40;;;;;;5034140;28;20030;-63
2021/06/25 08:00:14;;;;;;;74.50;53.20;;;14.40;99.10;;;;;;5033942;28;20390;-64
2021/06/25 08:02:42;;;;;;;34.40;25.20;;;14.20;99.90;;;;;;5033946;28;20028;-66
2021/06/25 08:05:10;;;;;;;59.38;40.60;;;14.10;99.90;;;;;;5033909;28;20022;-64
2021/06/25 08:07:38;;;;;;;103.68;66.22;;;14.10;99.90;;;;;;5033889;28;20025;-64
2021/06/25 08:10:08;;;;;;;50.05;31.98;;;14.00;99.90;;;;;;5033022;28;20065;-65
2021/06/25 08:12:35;;;;;;;13.95;10.00;;;13.90;99.90;;;;;;5033624;28;20075;-65
2021/06/25 08:15:04;;;;;;;11.98;8.50;;;13.80;99.90;;;;;;5033647;28;20033;-64
2021/06/25 08:17:31;;;;;;;6.85;6.25;;;;;;;;;;5033678;28;20021;-64
2021/06/25 08:19:58;;;;;;;7.15;6.55;;;13.50;99.90;;;;;;5033361;28;20454;-64
2021/06/25 08:22:25;;;;;;;4.97;4.57;;;13.30;99.90;;;;;;5032151;28;20041;-64
2021/06/25 08:24:53;;;;;;;4.60;4.30;;;13.30;99.90;;;;;;5033605;28;20083;-67
2021/06/25 08:27:21;;;;;;;4.00;3.70;;;13.30;99.90;;;;;;5033642;28;20505;-64
2021/06/25 08:29:48;;;;;;;4.47;4.07;;;13.20;99.80;;;;;;5033525;28;20508;-65
2021/06/25 08:32:16;;;;;;;3.97;3.67;;;13.40;99.60;;;;;;5033479;28;20117;-64
2021/06/25 08:34:43;;;;;;;4.10;3.80;;;13.40;99.60;;;;;;5033414;28;20022;-64
2021/06/25 08:37:10;;;;;;;3.88;3.60;;;13.50;99.10;;;;;;5033445;28;20040;-64
2021/06/25 08:39:38;;;;;;;4.30;3.90;;;13.40;99.30;;;;;;5033314;28;20116;-64
2021/06/25 08:42:07;;;;;;;4.20;3.90;;;13.40;99.50;;;;;;5032051;28;20017;-64
2021/06/25 08:44:39;;;;;;;5.32;4.82;;;13.20;99.70;;;;;;5033299;28;20021;-64
2021/06/25 08:47:07;;;;;;;6.40;5.40;;;13.10;99.90;;;;;;5033257;28;20064;-65
2021/06/25 08:49:42;;;;;;;5.80;4.93;;;13.30;99.90;;;;;;5033211;28;20025;-64
2021/06/25 08:52:11;;;;;;;4.90;4.50;;;13.30;99.90;;;;;;5033183;28;20029;-66
2021/06/25 08:54:39;;;;;;;4.55;4.22;;;13.20;99.70;;;;;;5032887;28;20392;-64
2021/06/25 08:57:08;;;;;;;4.35;3.97;;;13.30;99.40;;;;;;5031962;28;20029;-65
2021/06/25 08:59:36;;;;;;;4.95;4.45;;;13.30;99.50;;;;;;5033002;28;20021;-65
2021/06/25 09:02:04;;;;;;;4.03;3.72;;;13.20;99.90;;;;;;5033097;28;20032;-65
2021/06/25 09:04:43;;;;;;;4.10;3.80;;;13.10;99.90;;;;;;5033163;28;20017;-64
2021/06/25 09:07:12;;;;;;;4.50;4.20;;;12.90;99.90;;;;;;5033073;28;20026;-64
2021/06/25 09:09:49;;;;;;;4.45;4.05;;;12.90;99.90;;;;;;5032976;28;20021;-65
2021/06/25 09:12:24;;;;;;;5.63;5.13;;;12.80;99.90;;;;;;5032897;28;20072;-64
2021/06/25 09:15:15;;;;;;;5.00;4.20;;;12.80;99.90;;;;;;5032945;28;20032;-64
2021/06/25 09:17:59;;;;;;;5.43;5.03;;;12.90;99.90;;;;;;5032837;28;20116;-65
2021/06/25 09:20:47;;;;;;;5.30;4.80;;;12.80;99.90;;;;;;5032833;28;20041;-65
2021/06/25 09:23:31;;;;;;;5.22;4.82;;;12.80;99.90;;;;;;5037213;28;20017;-65
2021/06/25 09:26:10;;;;;;;4.60;4.25;;;12.80;99.90;;;;;;5037096;28;20026;-64
2021/06/25 09:28:46;;;;;;;5.82;4.60;;;12.80;99.90;;;;;;5036915;28;20485;-63
2021/06/25 09:31:17;;;;;;;5.50;5.10;;;12.70;99.90;;;;;;5037053;28;20030;-64
2021/06/25 09:33:50;;;;;;;5.07;4.70;;;12.60;99.90;;;;;;5036863;28;20021;-63
2021/06/25 09:36:25;;;;;;;4.97;4.60;;;12.50;99.90;;;;;;5036473;28;20033;-64
2021/06/25 09:38:59;;;;;;;4.78;4.35;;;12.50;99.90;;;;;;5036485;28;20033;-64
2021/06/25 09:41:27;;;;;;;4.65;4.32;;;12.50;99.90;;;;;;5036471;28;20028;-65
2021/06/25 09:44:18;;;;;;;4.50;4.10;;;12.40;99.90;;;;;;5036476;28;20018;-64
2021/06/25 09:46:51;;;;;;;4.85;4.45;;;12.50;99.90;;;;;;5035224;28;20025;-64
2021/06/25 09:49:27;;;;;;;5.00;4.60;;;12.60;99.90;;;;;;5035334;28;20029;-64
2021/06/25 09:52:02;;;;;;;5.20;4.80;;;12.60;99.90;;;;;;5036453;28;20021;-65
2021/06/25 09:54:30;;;;;;;5.47;4.97;;;12.60;99.90;;;;;;5036107;28;20049;-64
2021/06/25 10:02:22;;;;;;;5.53;5.13;;;12.50;99.90;;;;;;5036326;28;20017;-66
2021/06/25 10:04:50;;;;;;;5.00;4.60;;;12.50;99.90;;;;;;5034921;28;20032;-65
2021/06/25 10:07:20;;;;;;;5.45;4.40;;;12.40;99.90;;;;;;5036467;28;20070;-65
2021/06/25 10:09:50;;;;;;;4.65;4.30;;;12.40;99.90;;;;;;5036209;28;20398;-65
2021/06/25 10:12:22;;;;;;;4.53;4.13;;;12.30;99.90;;;;;;5036249;28;20075;-66
2021/06/25 10:14:51;;;;;;;4.25;4.00;;;12.30;99.90;;;;;;5036113;28;20021;-66
2021/06/25 10:17:24;;;;;;;5.00;4.70;;;12.30;99.90;;;;;;5036073;28;20036;-66
2021/06/25 10:19:53;;;;;;;4.93;4.57;;;12.10;99.90;;;;;;5035960;28;20033;-66
2021/06/25 10:22:27;;;;;;;4.60;4.30;;;12.00;99.90;;;;;;5034622;28;20029;-65
2021/06/25 10:24:55;;;;;;;5.55;5.05;;;12.00;99.90;;;;;;5036032;28;20017;-64
2021/06/25 10:27:24;;;;;;;5.10;4.80;;;12.00;99.90;;;;;;5036337;28;20026;-65
2021/06/25 10:29:52;;;;;;;5.65;5.25;;;12.00;99.90;;;;;;5035856;28;20478;-65
2021/06/25 10:32:19;;;;;;;5.65;5.15;;;11.90;99.90;;;;;;5035737;28;20022;-65
2021/06/25 10:34:47;;;;;;;6.53;5.95;;;12.00;99.90;;;;;;5035174;28;20192;-65
2021/06/25 10:37:28;;;;;;;6.10;5.50;;;12.10;99.90;;;;;;5035756;28;20025;-64
2021/06/25 10:39:55;;;;;;;5.78;5.25;;;12.00;99.90;;;;;;5034105;28;20386;-65
2021/06/25 10:42:41;;;;;;;5.82;5.43;;;11.90;99.90;;;;;;5035754;28;20413;-64
2021/06/25 10:45:09;;;;;;;5.93;5.43;;;11.80;99.90;;;;;;5035496;28;20064;-65
2021/06/25 10:47:51;;;;;;;5.35;5.05;;;11.80;99.90;;;;;;5035452;28;20018;-65
2021/06/25 10:50:23;;;;;;;5.45;5.05;;;11.80;99.90;;;;;;5035447;28;20028;-64
2021/06/25 10:53:18;;;;;;;5.43;5.13;;;11.70;99.90;;;;;;5033905;28;20056;-65
2021/06/25 10:56:03;;;;;;;5.93;5.53;;;11.70;99.90;;;;;;5034854;28;20129;-64
2021/06/25 10:58:31;;;;;;;5.93;5.55;;;11.70;99.90;;;;;;5035339;28;20029;-64
2021/06/25 11:01:01;;;;;;;5.60;5.20;;;11.60;99.90;;;;;;5035219;28;20033;-66
2021/06/25 11:03:41;;;;;;;5.47;5.15;;;11.60;99.90;;;;;;5035378;28;20109;-64
2021/06/25 11:06:45;;;;;;;5.78;5.43;;;11.50;99.90;;;;;;5033738;28;20049;-64
2021/06/25 11:09:12;;;;;;;5.32;4.93;;;11.60;99.90;;;;;;5033735;28;20033;-66
2021/06/25 11:11:39;;;;;;;5.15;4.85;;;11.70;99.90;;;;;;5035029;28;20029;-65
2021/06/25 11:14:25;;;;;;;5.40;5.10;;;11.90;99.90;;;;;;5034976;28;20021;-65
2021/06/25 11:16:53;;;;;;;5.45;5.15;;;11.80;99.90;;;;;;5034921;28;20033;-65
2021/06/25 11:19:40;;;;;;;5.10;4.80;;;11.80;99.90;;;;;;5034714;28;20393;-66
2021/06/25 11:22:39;;;;;;;5.72;5.32;;;11.80;99.90;;;;;;5034803;28;20013;-65
2021/06/25 11:25:13;;;;;;;5.60;5.20;;;11.70;99.90;;;;;;5034707;28;20078;-65
2021/06/25 11:28:16;;;;;;;5.97;5.50;;;11.70;99.90;;;;;;5034747;28;20017;-64
2021/06/25 11:30:52;;;;;;;6.05;5.65;;;11.60;99.90;;;;;;5034607;28;20518;-66
2021/06/25 11:33:37;;;;;;;5.90;5.60;;;11.60;99.90;;;;;;5034480;28;20025;-65
2021/06/25 11:36:23;;;;;;;5.78;5.35;;;11.50;99.90;;;;;;5034538;28;20032;-65
2021/06/25 11:38:59;;;;;;;5.28;4.95;;;11.50;99.90;;;;;;5034377;28;20037;-65
2021/06/25 11:41:37;;;;;;;5.30;4.90;;;11.60;99.90;;;;;;5034524;28;20025;-65
2021/06/25 11:44:15;;;;;;;5.00;4.70;;;11.60;99.90;;;;;;5034182;28;20366;-65
2021/06/25 11:47:00;;;;;;;4.80;4.50;;;11.60;99.90;;;;;;5033808;28;20068;-65
2021/06/25 11:52:27;;;;;;;4.80;4.60;;;11.50;99.90;;;;;;5034118;28;20021;-65
2021/06/25 11:54:57;;;;;;;4.60;4.40;;;11.60;99.90;;;;;;5033930;28;20049;-65
2021/06/25 11:57:26;;;;;;;4.63;4.35;;;11.50;99.90;;;;;;5034024;28;20052;-65
2021/06/25 12:00:16;;;;;;;4.57;4.38;;;11.50;99.90;;;;;;5033858;28;20576;-65
2021/06/25 12:03:03;;;;;;;4.72;4.43;;;11.50;99.90;;;;;;5033898;28;20022;-65
2021/06/25 12:05:33;;;;;;;5.28;4.97;;;11.40;99.90;;;;;;5033905;28;20026;-66
2021/06/25 12:08:16;;;;;;;5.25;4.95;;;11.30;99.90;;;;;;5033996;28;20468;-66
2021/06/25 12:11:01;;;;;;;5.20;4.90;;;11.30;99.90;;;;;;5033880;28;20053;-65
2021/06/25 12:13:31;;;;;;;5.18;4.70;;;11.30;99.90;;;;;;5033967;28;20430;-65
2021/06/25 12:16:00;;;;;;;5.07;4.78;;;11.30;99.90;;;;;;5033811;28;20026;-65
2021/06/25 12:18:29;;;;;;;4.80;4.60;;;11.40;99.90;;;;;;5033629;28;20061;-65
2021/06/25 12:21:11;;;;;;;4.78;4.53;;;11.40;99.90;;;;;;5033642;28;20018;-65
2021/06/25 12:23:38;;;;;;;5.22;5.03;;;11.50;99.90;;;;;;5033530;28;20394;-66
2021/06/25 12:26:19;;;;;;;4.82;4.63;;;11.60;99.90;;;;;;5033605;28;20048;-66
2021/06/25 12:28:49;;;;;;;5.82;5.40;;;11.50;99.90;;;;;;5033449;28;20028;-66
2021/06/25 12:31:22;;;;;;;5.13;4.80;;;11.50;99.90;;;;;;5033552;28;20112;-66
2021/06/25 12:33:51;;;;;;;4.82;4.63;;;11.60;99.90;;;;;;5033627;28;20048;-66
2021/06/25 12:36:19;;;;;;;4.70;4.50;;;11.50;99.90;;;;;;5033443;28;20049;-66
2021/06/25 12:38:50;;;;;;;5.07;4.88;;;11.60;99.90;;;;;;5033506;28;20557;-66
2021/06/25 12:41:18;;;;;;;4.82;4.63;;;11.70;99.90;;;;;;5033246;28;20021;-65
2021/06/25 12:43:47;;;;;;;5.43;5.22;;;11.70;99.90;;;;;;5033405;28;20035;-66
2021/06/25 12:46:19;;;;;;;4.97;4.68;;;11.60;99.90;;;;;;5033328;28;20018;-65
2021/06/25 12:49:06;;;;;;;5.10;4.90;;;11.60;99.90;;;;;;5033263;28;20029;-66
2021/06/25 12:51:38;;;;;;;5.60;5.35;;;11.60;99.90;;;;;;5033315;28;20036;-67
2021/06/25 12:54:07;;;;;;;4.97;4.78;;;11.70;99.90;;;;;;5032901;28;20022;-67
2021/06/25 12:56:40;;;;;;;5.00;4.80;;;11.70;99.90;;;;;;5032874;28;20072;-67
2021/06/25 12:59:10;;;;;;;5.05;4.80;;;11.70;99.90;;;;;;5033014;28;20036;-65
2021/06/25 13:01:39;;;;;;;4.65;4.45;;;11.80;99.90;;;;;;5033291;28;20356;-66
2021/06/25 13:04:25;;;;;;;4.90;4.70;;;12.00;99.90;;;;;;5033053;28;20139;-66
2021/06/25 13:07:03;;;;;;;4.90;4.70;;;12.00;99.90;;;;;;5033232;28;20018;-66
2021/06/25 13:09:38;;;;;;;5.05;4.85;;;12.10;99.90;;;;;;5033106;28;20073;-66
2021/06/25 13:12:24;;;;;;;4.97;4.78;;;12.30;99.90;;;;;;5033083;28;20509;-66
2021/06/25 13:14:59;;;;;;;4.50;4.30;;;12.20;99.90;;;;;;5033100;28;20083;-67
2021/06/25 13:17:30;;;;;;;4.60;4.40;;;12.30;99.90;;;;;;5033104;28;20053;-66
2021/06/25 13:20:28;;;;;;;4.57;4.38;;;12.20;99.90;;;;;;5031631;28;20088;-66
2021/06/25 13:23:01;;;;;;;4.90;4.60;;;12.30;99.90;;;;;;5032595;28;20049;-66
2021/06/25 13:25:35;;;;;;;4.60;4.40;;;12.30;99.90;;;;;;5033035;28;20429;-66
2021/06/25 13:28:02;;;;;;;5.13;4.82;;;12.30;99.90;;;;;;5033043;28;20371;-66
2021/06/25 13:30:30;;;;;;;4.70;4.40;;;12.20;99.90;;;;;;5032913;28;20109;-65
2021/06/25 13:32:59;;;;;;;4.20;4.00;;;12.30;99.90;;;;;;5032866;28;20022;-65